Asheville Regional Airport
KAVL : now visible

Airfield :











YOU CAN JOIN US ON...

 
LOGIN :

Register | Disclaimer

   EN    FR    IT 

 









Legend :    VFR   Marginal VFR   IFR   Intensive IFR   Very Intensive IFR
Visi :
Ceiling :
>= 8 km
>= 3000ft
5 to 8 km
1000 to 3000 ft
1500m to 5 km
500 to 1000 ft
800 to 1500m
200 to 500 ft
< 800m
< 200 ft
Symbols :   Thunderstorms  Fog  Heavy snow  Heavy precipitations  Wind > 20 kt






- Airport Elevation : 2165 ft
- IATA code : AVL


KAVL - Asheville Regional

CURRENT METAR :
  • 012254Z 14008G17KT 10SM TS FEW036 BKN045 BKN055 23/18 A3015 RMK AO2 LTG DSNT NE AND S AND SW TSB39 SLP186 T02280178

EXPIRED METARs :
  • 012215Z 13004KT 10SM VCTS SCT037 27/19 A3012 RMK AO2 LTG DSNT ALQDS T02720189
  • 011554Z 00000KT 10SM FEW027 BKN041 BKN085 25/18 A3023 RMK AO2 SLP208 T02500183
  • 012154Z 14006KT 10SM FEW035 27/17 A3012 RMK AO2 LTG DSNT E-S SLP172 T02720172
  • 012054Z 17007KT 10SM SCT035 SCT050 28/18 A3013 RMK AO2 LTG DSNT SE SLP176 T02780183 56015

TAF KAVL
Valid from the 01 at 22:00 until the 02 at 18:00 UTC


012157Z 0122/0218 17006KT P6SM VCSH SCT040 BKN250
TEMPO 0122/0124 4SM TSRA BR OVC025CB
FM020300 00000KT P6SM SCT200
FM020900 00000KT 2SM BR FEW003 SCT007
FM021400 34003KT P6SM SCT200
PROB30 0216/0218 4SM TSRA BR BKN040CB
KZTL FIR / North America



MET'MAP, your aeronautical weather chart ! - Copyright ORBIFLY December 2007 - Disclaimer

ORBIFLY MET'MAP TEAM :

Programming & Development : Alexandra Zaïnal
Original concept : Baudouin d'Aumeries
Technical & hardware support : Manuel Goepfert
Assistance : Marc-Olivier Méhu




SOURCES & CREDITS :

   NOAA       Earth
Advisory